< < Back
Terminal Aerodrome Forecast


Current Version              Previous Versions:   1  2  3  4  5  6  7  8  9  

Terminal Aerodrome Forecast

798
FTUS44 KOHX 290521
TAFCSV
TAF
KCSV 290521Z 2906/3006 VRB04KT P6SM SKC
     FM291800 30004KT P6SM SCT250
     FM300000 09005KT P6SM BKN120=



Latest METAR

989
SAUS70 KWBC 291700 RRA
MTRCSV
METAR KCSV 291653Z AUTO 36005KT 10SM CLR 25/05 A3007 RMK AO2 SLP163
T02500050


USA.gov is the U.S. government's official web portal to all federal, state and local government web resources and services.